Castlemaine, Victoria

5:27 AM AEST on August 28, 2015 (GMT +1000)
Newstead | | Change Station
CLOSE
Current Station
Personal Weather Station
Location: Newstead, VICTORIA
Elevation: 722 ft
Nearby Weather Stations

Elev 722 ft 37.12 °S, 144.06 °E | Updated 20 seconds ago

Scattered Clouds
Scattered Clouds
41.2 °F
Feels Like 41 °F
N
1.2
Wind Variable Wind from SSW
Gusts 0.0 mph

Today
High -- | Low -- °F
--% Chance of Precip.
Yesterday
High -- | Low -- °F
Precip. -- in
6:50 AM 5:58 PM
Waxing Gibbous, 94% visible
Pressure 30.24 in
Visibility 6.2 miles
Clouds Few 2100 ft
Scattered Clouds 4500 ft
Windchill 41 °F
Dew Point 33 °F
Humidity 72%
Rainfall 0.05 in
Snow Depth Not available.
UV 0.0 out of 12
Pollen Not available.
Air Quality Not available.
Flu Activity Not available.
METAR YMML 271900Z 26008KT 9999 VCSH FEW021 SCT045 07/06 Q1024 NOSIG
Pressure 30.24 in
Visibility 6.2 miles
Clouds Few 2100 ft
Scattered Clouds 4500 ft
Windchill 41 °F
Dew Point 33 °F
Humidity 72%
Rainfall 0.05 in
Snow Depth Not available.
UV 0.0 out of 12
Pollen Not available.
Air Quality Not available.
Flu Activity Not available.
METAR YMML 271900Z 26008KT 9999 VCSH FEW021 SCT045 07/06 Q1024 NOSIG

10-Day Weather Forecast

×

Almanac

Astronomy

Aug. 28, 2015 Rise Set
Actual Time
Civil Twilight
Nautical Twilight
Astronomical Twilight
Moon
Length of Visible Light
Length of Day
Tomorrow will be .
, % of the Moon is Illuminated

Today's Extremes

Country Highs Country Lows

Community

WunderPhotos

Upload Photos

1,850,195 photos uploaded!

WunderBlogs® & News

Nearby

Air Quality

  Air Quality AQ Index Pollutant
Not available.

Snow Depth

Station Depth Elevation

Earthquake Activity

City Distance Mag. Time & Date
Minimum magnitude displayed is 2.5.

Coastal Water Temperatures

Place Temperature

Stations

Nearby Weather Stations

Station Location Temp. Windchill Dew Point Humidity Wind Precip. Elev Updated Type